Time;durP1;ratioP1;P1;durP2;ratioP2;P2;SDS_P1;SDS_P2;PMS_P1;PMS_P2;Temp;Humidity;BMP_temperature;BMP_pressure;BME280_temperature;BME280_humidity;BME280_pressure;Samples;Min_cycle;Max_cycle;Signal;HPM_P1;HPM_P2
2023/03/19 00:00:43;;;;;;;39.30;27.35;;;;;;;8.50;38.44;95655.63;5089208;28;20286;-62
2023/03/19 00:03:10;;;;;;;177.25;120.05;;;;;;;8.42;39.06;95661.16;5090432;28;20226;-65
2023/03/19 00:05:37;;;;;;;35.47;26.30;;;;;;;8.29;39.03;95656.13;5090441;28;20207;-64
2023/03/19 00:08:04;;;;;;;33.55;26.38;;;;;;;8.32;38.41;95654.88;5090506;28;20245;-63
2023/03/19 00:10:31;;;;;;;37.47;25.67;;;;;;;8.38;38.32;95646.94;5090992;28;20205;-64
2023/03/19 00:12:58;;;;;;;36.70;25.55;;;;;;;8.27;38.68;95639.88;5090330;28;20939;-63
2023/03/19 00:15:25;;;;;;;42.90;24.10;;;;;;;8.23;38.55;95649.13;5090169;28;20223;-64
2023/03/19 00:17:53;;;;;;;22.83;20.73;;;;;;;7.97;39.04;95647.66;5089888;28;20183;-63
2023/03/19 00:20:21;;;;;;;22.42;20.33;;;;;;;8.02;39.25;95655.66;5090280;28;20211;-65
2023/03/19 00:22:48;;;;;;;23.23;20.92;;;;;;;7.95;39.21;95641.09;5089900;28;20207;-64
2023/03/19 00:25:14;;;;;;;24.02;21.58;;;;;;;7.94;39.63;95639.50;5088671;28;20724;-64
2023/03/19 00:27:43;;;;;;;34.85;23.38;;;;;;;8.09;38.97;95616.41;5089653;28;20227;-64
2023/03/19 00:30:10;;;;;;;27.08;24.25;;;;;;;7.68;40.21;95639.84;5087666;28;20674;-64
2023/03/19 00:32:38;;;;;;;25.55;22.85;;;;;;;8.03;38.96;95638.97;5088515;28;20226;-64
2023/03/19 00:35:07;;;;;;;23.80;21.48;;;;;;;8.10;38.96;95638.91;5089844;28;20221;-64
2023/03/19 00:37:34;;;;;;;81.22;26.95;;;;;;;8.18;39.11;95630.75;5088038;28;20195;-64
2023/03/19 00:40:02;;;;;;;27.23;22.65;;;;;;;8.14;38.93;95630.38;5089574;28;20215;-63
2023/03/19 00:42:30;;;;;;;32.10;24.77;;;;;;;8.00;39.45;95625.56;5089589;28;20253;-63
2023/03/19 00:44:57;;;;;;;35.92;26.05;;;;;;;8.10;38.80;95623.25;5089678;28;20244;-63
2023/03/19 00:47:24;;;;;;;36.08;27.33;;;;;;;7.91;39.32;95625.09;5088841;28;20198;-62
2023/03/19 00:49:51;;;;;;;29.70;23.80;;;;;;;7.80;39.95;95618.00;5089154;28;20681;-64
2023/03/19 00:52:18;;;;;;;26.33;22.40;;;;;;;7.44;39.84;95612.84;5088340;28;20199;-65
2023/03/19 00:54:45;;;;;;;24.17;21.63;;;;;;;7.65;40.14;95624.59;5089783;28;20961;-64
2023/03/19 00:57:12;;;;;;;30.75;24.20;;;;;;;6.73;42.32;95622.94;5089130;28;20233;-63
2023/03/19 00:59:39;;;;;;;29.98;23.83;;;;;;;6.89;41.53;95624.22;5088556;28;20206;-62
2023/03/19 01:02:06;;;;;;;16.98;15.25;;;;;;;6.79;42.07;95624.72;5089582;28;20194;-64
2023/03/19 01:04:32;;;;;;;16.15;14.85;;;;;;;7.16;41.54;95621.16;5088711;28;20658;-64
2023/03/19 01:07:00;;;;;;;25.35;22.65;;;;;;;7.37;40.84;95616.53;5087648;28;20214;-64
2023/03/19 01:09:26;;;;;;;23.98;21.58;;;;;;;7.58;40.51;95613.47;5089498;28;20249;-63
2023/03/19 01:11:53;;;;;;;8.02;7.43;;;;;;;7.65;40.03;95619.38;5089070;28;20217;-63
2023/03/19 01:14:20;;;;;;;4.43;4.13;;;;;;;7.64;40.06;95617.81;5087731;28;20842;-62
2023/03/19 01:16:47;;;;;;;0.85;0.85;;;;;;;7.55;40.83;95613.91;5087145;28;20255;-64
2023/03/19 01:19:15;;;;;;;0.50;0.50;;;;;;;7.69;40.67;95610.91;5088928;28;21413;-63
2023/03/19 01:21:45;;;;;;;6.72;2.95;;;;;;;7.50;40.39;95600.75;5087394;28;20199;-64
2023/03/19 01:24:15;;;;;;;4.13;3.88;;;;;;;7.49;40.61;95609.56;5075414;28;20195;-62
2023/03/19 01:26:43;;;;;;;1.15;0.95;;;;;;;7.60;40.59;95612.25;5087065;28;20203;-63
2023/03/19 01:29:26;;;;;;;1.55;1.45;;;;;;;7.81;40.01;95606.53;5087848;28;20290;-65
2023/03/19 01:31:56;;;;;;;3.13;2.58;;;;;;;7.57;40.51;95591.03;5086863;28;20195;-65
2023/03/19 01:34:38;;;;;;;6.68;6.13;;;;;;;7.57;39.97;95606.66;5087151;28;20207;-62
2023/03/19 01:37:10;;;;;;;60.90;28.88;;;;;;;7.66;39.93;95597.53;5086658;28;20226;-63
2023/03/19 01:39:38;;;;;;;47.38;30.50;;;;;;;7.57;40.44;95602.22;5087429;28;20207;-64
2023/03/19 01:42:09;;;;;;;39.85;27.42;;;;;;;7.53;40.63;95610.72;5086925;28;20214;-64
2023/03/19 01:44:44;;;;;;;27.60;23.60;;;;;;;7.58;40.28;95592.59;5087551;28;20285;-64
2023/03/19 01:47:34;;;;;;;2.88;2.67;;;;;;;7.51;40.16;95602.31;5088467;28;20202;-64
2023/03/19 01:50:39;;;;;;;3.65;3.35;;;;;;;7.19;40.49;95610.28;5088259;28;20193;-64
2023/03/19 01:53:30;;;;;;;1.83;1.73;;;;;;;7.48;40.27;95611.38;5087404;28;20650;-65
2023/03/19 01:56:31;;;;;;;70.90;37.72;;;;;;;7.26;40.35;95606.81;5088212;28;20229;-64
2023/03/19 01:59:20;;;;;;;36.25;24.45;;;;;;;7.13;41.34;95611.13;5089119;28;20714;-63
2023/03/19 02:02:15;;;;;;;27.88;23.08;;;;;;;6.94;41.06;95604.34;5080620;28;20198;-63
2023/03/19 02:04:46;;;;;;;9.18;8.45;;;;;;;7.19;40.51;95606.88;5087501;28;20808;-66
2023/03/19 02:07:14;;;;;;;0.70;0.70;;;;;;;7.27;40.59;95609.22;5086651;28;20198;-63
2023/03/19 02:09:41;;;;;;;1.00;1.00;;;;;;;7.30;40.88;95615.81;5089545;28;20203;-63
2023/03/19 02:12:09;;;;;;;0.80;0.80;;;;;;;7.36;40.83;95610.50;5088958;28;20234;-63
2023/03/19 02:14:35;;;;;;;3.55;3.33;;;;;;;7.35;41.16;95608.94;5088799;28;20553;-64
2023/03/19 02:17:04;;;;;;;1.25;1.25;;;;;;;7.48;40.39;95602.75;5087320;28;20887;-64
2023/03/19 02:19:47;;;;;;;1.65;1.55;;;;;;;7.22;40.89;95609.84;5087883;28;20191;-66
2023/03/19 02:22:18;;;;;;;1.95;1.85;;;;;;;7.27;41.04;95606.59;5087652;28;20210;-64
2023/03/19 02:25:19;;;;;;;1.08;1.08;;;;;;;7.40;40.23;95610.88;5087337;28;20227;-65
2023/03/19 02:27:46;;;;;;;7.10;6.55;;;;;;;7.25;41.07;95611.22;5087693;28;20190;-64
2023/03/19 02:30:26;;;;;;;0.95;0.95;;;;;;;7.25;40.95;95610.44;5087086;28;20242;-62
2023/03/19 02:32:53;;;;;;;0.82;0.82;;;;;;;7.12;41.36;95614.78;5086279;28;20221;-63
2023/03/19 02:35:21;;;;;;;1.65;1.55;;;;;;;7.33;40.09;95615.38;5087995;28;20682;-63
2023/03/19 02:37:48;;;;;;;0.57;0.57;;;;;;;7.22;41.21;95615.06;5086404;28;20217;-63
2023/03/19 02:40:42;;;;;;;0.70;0.70;;;;;;;7.19;40.28;95620.72;5073716;28;20203;-63
2023/03/19 02:43:09;;;;;;;0.70;0.70;;;;;;;7.12;39.99;95611.38;5082686;28;20282;-62
2023/03/19 02:45:36;;;;;;;0.88;0.88;;;;;;;7.14;40.36;95612.75;5088445;28;20257;-62
2023/03/19 02:48:03;;;;;;;23.52;19.83;;;;;;;7.20;39.71;95616.31;5088110;28;20191;-65
2023/03/19 02:50:30;;;;;;;20.98;19.17;;;;;;;7.18;40.21;95613.91;5088202;28;20197;-63
2023/03/19 02:52:57;;;;;;;1.38;1.27;;;;;;;7.00;40.25;95616.50;5087538;28;20573;-63
2023/03/19 02:55:24;;;;;;;3.15;2.95;;;;;;;6.93;39.93;95615.75;5086385;28;20269;-62
2023/03/19 02:57:51;;;;;;;0.75;0.75;;;;;;;6.85;40.41;95623.84;5086847;28;20262;-64
2023/03/19 03:00:19;;;;;;;0.68;0.68;;;;;;;6.82;40.53;95624.31;5086779;28;20210;-64
2023/03/19 03:02:46;;;;;;;0.75;0.75;;;;;;;6.78;40.10;95617.91;5086007;28;20735;-64
2023/03/19 03:05:13;;;;;;;2.17;2.08;;;;;;;6.70;40.42;95620.78;5087720;28;20219;-62
2023/03/19 03:07:42;;;;;;;0.50;0.50;;;;;;;6.55;40.98;95614.31;5085702;28;20201;-65
2023/03/19 03:10:10;;;;;;;0.50;0.50;;;;;;;6.70;41.19;95625.19;5087897;28;20656;-63
2023/03/19 03:12:37;;;;;;;0.50;0.50;;;;;;;6.87;41.03;95627.06;5089335;28;20195;-63
2023/03/19 03:15:07;;;;;;;0.80;0.80;;;;;;;6.67;41.49;95634.25;5091570;28;20283;-65
2023/03/19 03:17:38;;;;;;;19.83;16.88;;;;;;;6.71;41.09;95638.00;5091284;28;20234;-63
2023/03/19 03:20:06;;;;;;;23.38;21.17;;;;;;;6.68;41.21;95638.41;5090432;28;20264;-64
2023/03/19 03:22:33;;;;;;;9.73;8.77;;;;;;;6.79;40.65;95627.31;5091149;28;20203;-64
2023/03/19 03:25:00;;;;;;;0.98;0.98;;;;;;;6.73;41.47;95643.00;5091735;28;20297;-66
2023/03/19 03:27:29;;;;;;;0.88;0.88;;;;;;;6.87;40.98;95645.28;5089390;28;20249;-64
2023/03/19 03:29:56;;;;;;;1.55;1.48;;;;;;;6.84;41.87;95637.88;5090250;28;20187;-65
2023/03/19 03:32:23;;;;;;;15.85;14.45;;;;;;;6.77;41.46;95631.94;5090882;28;20192;-63
2023/03/19 03:34:50;;;;;;;21.45;19.48;;;;;;;6.68;41.72;95640.25;5090637;28;20210;-64
2023/03/19 03:37:18;;;;;;;110.00;64.97;;;;;;;6.70;41.30;95646.81;5090067;28;20215;-64
2023/03/19 03:39:45;;;;;;;67.18;36.88;;;;;;;6.47;42.40;95633.59;5089587;28;20199;-63
2023/03/19 03:42:12;;;;;;;87.07;48.08;;;;;;;6.60;42.06;95646.53;5090387;28;20302;-63
2023/03/19 03:44:40;;;;;;;21.02;14.60;;;;;;;6.59;41.76;95655.31;5089297;28;20635;-65
2023/03/19 03:47:07;;;;;;;7.75;7.05;;;;;;;6.83;41.41;95651.13;5089140;28;20643;-63
2023/03/19 03:49:35;;;;;;;34.88;20.92;;;;;;;6.48;42.11;95648.19;5089145;28;20252;-63
2023/03/19 03:52:01;;;;;;;34.38;23.27;;;;;;;6.55;41.59;95651.53;5076096;28;20191;-64
2023/03/19 03:54:31;;;;;;;86.25;35.90;;;;;;;6.66;41.14;95661.28;5089384;28;20674;-64
2023/03/19 03:56:58;;;;;;;5.50;3.03;;;;;;;6.70;41.63;95656.44;5088759;28;20620;-63
2023/03/19 03:59:29;;;;;;;1.20;1.20;;;;;;;6.66;41.42;95661.28;5089216;28;20199;-64
2023/03/19 04:01:55;;;;;;;;;;;;;;;6.47;41.98;95662.22;5089577;28;20463;-67
2023/03/19 04:04:22;;;;;;;;;;;;;;;6.56;41.34;95665.38;5089690;28;19952;-64
2023/03/19 04:06:49;;;;;;;;;;;;;;;6.60;41.48;95663.94;5088599;28;19955;-64
2023/03/19 04:09:33;;;;;;;;;;;;;;;6.55;41.39;95659.34;5088485;28;20000;-65
2023/03/19 04:12:01;;;;;;;;;;;;;;;6.56;41.75;95655.75;5087841;28;19955;-66
2023/03/19 04:14:27;;;;;;;;;;;;;;;6.52;41.49;95659.78;5088735;28;20416;-66
2023/03/19 04:16:55;;;;;;;;;;;;;;;6.32;41.88;95653.91;5088799;28;19951;-62
2023/03/19 04:19:22;;;;;;;;;;;;;;;6.27;42.35;95656.34;5091465;28;19954;-65
2023/03/19 04:21:48;;;;;;;;;;;;;;;6.29;42.24;95651.75;5089419;28;20031;-63
2023/03/19 04:24:15;;;;;;;;;;;;;;;6.30;42.30;95655.94;5089328;28;19947;-67
2023/03/19 04:26:42;;;;;;;;;;;;;;;6.33;42.12;95655.53;5087910;28;19956;-63
2023/03/19 04:29:09;;;;;;;0.00;0.00;;;;;;;6.34;42.20;95657.09;5079762;28;20469;-64
2023/03/19 04:31:37;;;;;;;;;;;;;;;6.41;41.61;95660.47;5088396;28;20227;-65
2023/03/19 04:34:04;;;;;;;;;;;;;;;6.44;42.16;95667.06;5100835;28;19924;-64
2023/03/19 04:36:32;;;;;;;;;;;;;;;6.45;42.05;95674.66;5090163;28;19962;-63
2023/03/19 04:38:59;;;;;;;;;;;;;;;6.27;42.60;95668.56;5088770;28;20465;-64
2023/03/19 04:41:26;;;;;;;;;;;;;;;6.18;42.52;95668.81;5088337;28;19992;-65
2023/03/19 04:44:22;;;;;;;;;;;;;;;6.22;41.94;95669.22;5081077;28;19924;-64
2023/03/19 04:46:49;;;;;;;;;;;;;;;6.36;42.38;95665.50;5088803;28;20539;-66
2023/03/19 04:49:18;;;;;;;;;;;;;;;6.18;42.63;95670.63;5088718;28;20398;-65
2023/03/19 04:51:45;;;;;;;;;;;;;;;6.14;42.45;95659.84;5103899;28;20895;-65
2023/03/19 04:54:12;;;;;;;;;;;;;;;6.20;42.84;95665.22;5089326;28;19966;-65
2023/03/19 04:56:39;;;;;;;;;;;;;;;6.34;41.87;95667.53;5088167;28;19997;-64
2023/03/19 04:59:06;;;;;;;;;;;;;;;6.15;42.54;95665.81;5088640;28;20577;-65
2023/03/19 05:01:33;;;;;;;;;;;;;;;6.21;42.25;95667.59;5089578;28;20453;-63
2023/03/19 05:04:04;;;;;;;;;;;;;;;6.36;41.91;95675.91;5088725;28;19992;-64
2023/03/19 05:06:33;;;;;;;;;;;;;;;6.41;42.12;95668.28;5088164;28;19987;-65
2023/03/19 05:09:00;;;;;;;;;;;;;;;6.23;42.88;95670.78;5089488;28;20025;-66
2023/03/19 05:11:27;;;;;;;;;;;;;;;6.32;42.75;95669.53;5088181;28;20517;-63
2023/03/19 05:14:03;;;;;;;;;;;;;;;6.36;42.90;95673.31;5088722;28;19950;-66
2023/03/19 05:16:42;;;;;;;;;;;;;;;6.40;42.07;95671.91;5087918;28;20052;-64
2023/03/19 05:19:09;;;;;;;1.25;1.25;;;;;;;6.56;41.72;95671.38;5087548;28;20510;-64
2023/03/19 05:21:36;;;;;;;0.40;0.35;;;;;;;6.67;41.77;95668.09;5082719;28;20214;-64
2023/03/19 05:24:04;;;;;;;0.30;0.30;;;;;;;6.62;41.87;95670.53;5088242;28;20199;-63
2023/03/19 05:26:34;;;;;;;1.48;1.40;;;;;;;6.69;41.58;95650.44;5086814;28;20670;-64
2023/03/19 05:29:09;;;;;;;0.35;0.35;;;;;;;6.77;41.36;95681.41;5089284;28;20302;-64
2023/03/19 05:31:58;;;;;;;0.30;0.30;;;;;;;6.87;42.18;95673.13;5087244;28;20218;-63
2023/03/19 05:34:26;;;;;;;0.40;0.40;;;;;;;6.87;41.79;95671.34;5087680;28;20640;-63
2023/03/19 05:36:53;;;;;;;0.52;0.52;;;;;;;6.94;41.62;95669.47;5078368;28;20622;-63
2023/03/19 05:39:20;;;;;;;0.30;0.30;;;;;;;7.02;41.84;95671.81;5078910;28;20951;-65
2023/03/19 05:41:49;;;;;;;0.63;0.63;;;;;;;6.84;42.28;95674.34;5085426;28;20288;-65
2023/03/19 05:44:20;;;;;;;0.43;0.43;;;;;;;7.07;41.64;95668.56;5086802;28;20719;-65
2023/03/19 05:47:00;;;;;;;0.10;0.10;;;;;;;6.97;41.82;95684.66;5076510;28;20239;-63
2023/03/19 05:49:31;;;;;;;0.17;0.17;;;;;;;7.14;41.65;95675.31;5084112;28;20192;-65
2023/03/19 05:51:58;;;;;;;0.30;0.30;;;;;;;7.25;41.49;95675.59;5085633;28;20592;-64
2023/03/19 05:54:25;;;;;;;0.17;0.17;;;;;;;7.18;41.97;95679.06;5086061;28;20199;-63
2023/03/19 05:57:00;;;;;;;0.80;0.80;;;;;;;7.31;42.09;95685.16;5085215;28;20230;-67
2023/03/19 05:59:47;;;;;;;0.10;0.10;;;;;;;7.43;41.62;95673.00;5074623;28;20214;-66
2023/03/19 06:02:26;;;;;;;0.88;0.28;;;;;;;7.27;40.81;95670.97;5076744;28;20226;-65
2023/03/19 06:05:08;;;;;;;1.20;0.43;;;;;;;7.51;40.83;95670.91;5075597;28;20226;-65
2023/03/19 06:07:35;;;;;;;0.40;0.40;;;;;;;7.42;41.42;95671.41;5076793;28;20188;-63
2023/03/19 06:10:07;;;;;;;0.25;0.25;;;;;;;7.50;41.91;95668.53;5078327;28;20207;-67
2023/03/19 06:12:35;;;;;;;0.10;0.10;;;;;;;7.48;41.22;95665.34;5081609;28;20203;-64
2023/03/19 06:15:19;;;;;;;0.10;0.10;;;;;;;7.57;40.50;95669.25;5079600;28;20207;-64
2023/03/19 06:18:07;;;;;;;0.10;0.10;;;;;;;7.62;40.96;95666.78;5071539;28;20215;-63
2023/03/19 06:20:34;;;;;;;0.10;0.10;;;;;;;7.88;40.60;95666.50;5085809;28;20837;-64
2023/03/19 06:23:02;;;;;;;0.15;0.15;;;;;;;7.97;40.50;95673.00;5087537;28;20227;-65
2023/03/19 06:25:29;;;;;;;0.15;0.15;;;;;;;7.97;40.00;95675.59;5086038;28;20373;-63
2023/03/19 06:27:55;;;;;;;0.20;0.20;;;;;;;8.17;39.81;95670.94;5085619;28;20197;-61
2023/03/19 06:30:26;;;;;;;0.10;0.10;;;;;;;8.12;40.46;95674.19;5086272;28;20230;-64
2023/03/19 06:32:56;;;;;;;0.22;0.22;;;;;;;8.25;39.76;95682.91;5085038;28;20863;-61
2023/03/19 06:35:23;;;;;;;0.20;0.17;;;;;;;8.31;39.49;95680.19;5086135;28;20215;-63
2023/03/19 06:37:51;;;;;;;0.40;0.40;;;;;;;8.42;39.07;95687.28;5083470;28;20245;-63
2023/03/19 06:40:19;;;;;;;0.13;0.13;;;;;;;8.50;39.21;95684.34;5087634;28;20302;-63
2023/03/19 06:42:47;;;;;;;0.40;0.40;;;;;;;8.22;39.67;95684.09;5087038;28;20740;-64
2023/03/19 06:45:17;;;;;;;0.75;0.75;;;;;;;8.17;40.14;95681.38;5085721;28;20226;-61
2023/03/19 06:47:46;;;;;;;0.47;0.47;;;;;;;8.30;41.91;95685.66;5089098;28;20196;-66
2023/03/19 06:50:15;;;;;;;0.20;0.20;;;;;;;8.51;41.24;95691.16;5077872;28;20248;-64
2023/03/19 06:52:43;;;;;;;0.40;0.40;;;;;;;8.83;40.73;95687.25;5090803;28;20217;-64
2023/03/19 06:55:11;;;;;;;0.28;0.28;;;;;;;8.78;39.55;95699.41;5091163;28;20837;-64
2023/03/19 06:57:41;;;;;;;0.30;0.30;;;;;;;8.91;40.03;95694.78;5089027;28;20257;-63
2023/03/19 07:00:10;;;;;;;0.30;0.30;;;;;;;9.03;39.19;95698.19;5088241;28;20659;-63
2023/03/19 07:02:37;;;;;;;1.10;1.00;;;;;;;9.05;39.07;95696.16;5080569;28;20855;-64
2023/03/19 07:05:04;;;;;;;1.02;0.55;;;;;;;9.10;38.43;95698.09;5091519;28;20975;-64
2023/03/19 07:07:31;;;;;;;0.30;0.30;;;;;;;9.19;39.00;95696.75;5090305;28;20647;-65
2023/03/19 07:09:58;;;;;;;0.37;0.37;;;;;;;9.37;38.11;95695.81;5090744;28;20437;-65
2023/03/19 07:12:26;;;;;;;0.20;0.20;;;;;;;9.47;38.67;95686.38;5090492;28;20934;-64
2023/03/19 07:14:55;;;;;;;0.15;0.15;;;;;;;9.59;37.48;95694.22;5080833;28;20190;-64
2023/03/19 07:17:23;;;;;;;0.10;0.10;;;;;;;9.47;37.98;95685.59;5086668;28;20230;-66
2023/03/19 07:19:50;;;;;;;0.30;0.30;;;;;;;9.53;38.49;95690.69;5090584;28;20434;-63
2023/03/19 07:22:17;;;;;;;0.30;0.30;;;;;;;9.66;38.15;95692.28;5090373;28;20480;-64
2023/03/19 07:24:44;;;;;;;0.20;0.20;;;;;;;9.85;37.95;95693.72;5090475;28;20444;-64
2023/03/19 07:27:11;;;;;;;0.40;0.40;;;;;;;10.03;37.08;95689.13;5090448;28;20534;-65
2023/03/19 07:29:38;;;;;;;0.13;0.13;;;;;;;9.90;37.86;95689.41;5090771;28;20451;-66
2023/03/19 07:32:05;;;;;;;0.40;0.40;;;;;;;9.91;37.73;95692.78;5089664;28;20481;-63
2023/03/19 07:34:31;;;;;;;;;;;;;;;10.20;37.68;95683.97;5090585;28;20502;-65
2023/03/19 07:36:58;;;;;;;0.55;0.25;;;;;;;10.09;37.02;95692.69;5088548;28;20490;-64
2023/03/19 07:39:25;;;;;;;0.37;0.37;;;;;;;9.79;37.32;95676.31;5089173;28;20201;-64
2023/03/19 07:41:52;;;;;;;0.20;0.20;;;;;;;10.10;37.73;95673.31;5078377;28;20472;-65
2023/03/19 07:44:22;;;;;;;0.20;0.20;;;;;;;10.29;37.53;95682.59;5077938;28;20442;-65
2023/03/19 07:46:49;;;;;;;0.27;0.27;;;;;;;10.59;37.49;95683.13;5089305;28;20446;-63
2023/03/19 07:49:16;;;;;;;0.20;0.20;;;;;;;10.50;37.07;95668.81;5090182;28;20445;-65
2023/03/19 07:51:43;;;;;;;0.20;0.20;;;;;;;10.56;36.84;95694.09;5089634;28;20469;-63
2023/03/19 07:54:10;;;;;;;0.50;0.50;;;;;;;10.67;36.90;95685.38;5090851;28;20445;-65
2023/03/19 07:56:37;;;;;;;1.40;1.30;;;;;;;10.90;36.55;95685.22;5088914;28;21000;-65
2023/03/19 07:59:04;;;;;;;0.97;0.97;;;;;;;10.89;36.29;95677.59;5088342;28;20850;-64
2023/03/19 08:01:31;;;;;;;11.50;10.75;;;;;;;11.08;36.24;95682.34;5090084;28;20456;-63
2023/03/19 08:03:58;;;;;;;0.30;0.30;;;;;;;11.13;36.23;95679.81;5091662;28;20724;-63
2023/03/19 08:06:26;;;;;;;;;;;;;;;11.20;36.39;95675.19;5077186;28;20526;-64
2023/03/19 08:08:53;;;;;;;0.00;0.00;;;;;;;11.27;35.72;95671.63;5089361;28;20492;-64
2023/03/19 08:11:21;;;;;;;0.80;0.80;;;;;;;10.98;35.16;95682.19;5082188;28;20290;-63
2023/03/19 08:13:48;;;;;;;0.40;0.40;;;;;;;11.39;35.16;95669.69;5089976;28;20210;-63
2023/03/19 08:16:15;;;;;;;0.60;0.60;;;;;;;11.45;35.91;95680.03;5089458;28;20547;-63
2023/03/19 08:18:42;;;;;;;0.20;0.20;;;;;;;11.72;34.93;95672.28;5090018;28;20218;-63
2023/03/19 08:21:09;;;;;;;;;;;;;;;11.81;34.18;95674.22;5088390;28;20523;-65
2023/03/19 08:23:35;;;;;;;0.20;0.20;;;;;;;11.85;34.25;95666.66;5072054;28;20493;-64
2023/03/19 08:26:03;;;;;;;0.20;0.20;;;;;;;11.64;33.39;95664.78;5069004;28;20223;-63
2023/03/19 08:28:29;;;;;;;0.40;0.40;;;;;;;11.72;33.86;95667.81;5086972;28;20858;-64
2023/03/19 08:30:56;;;;;;;;;;;;;;;12.05;34.23;95666.91;5078440;28;20959;-63
2023/03/19 08:33:23;;;;;;;;;;;;;;;12.30;34.13;95659.28;5082887;28;19932;-65
2023/03/19 08:35:50;;;;;;;;;;;;;;;12.38;34.24;95666.75;5080133;28;20405;-67
2023/03/19 08:38:18;;;;;;;4.25;4.05;;;;;;;12.38;33.92;95655.44;5084427;28;19924;-66
2023/03/19 08:40:46;;;;;;;0.28;0.28;;;;;;;12.30;32.47;95654.03;5081056;28;20191;-66
2023/03/19 08:43:13;;;;;;;;;;;;;;;11.68;32.72;95661.47;5087102;28;20190;-67
2023/03/19 08:45:40;;;;;;;1.20;0.22;;;;;;;12.20;31.57;95648.69;5088162;28;20445;-62
2023/03/19 08:48:07;;;;;;;0.70;0.40;;;;;;;12.54;31.63;95644.03;5088920;28;20190;-65
2023/03/19 08:50:34;;;;;;;0.30;0.30;;;;;;;12.63;30.90;95647.78;5088711;28;20530;-65
2023/03/19 08:53:01;;;;;;;0.40;0.40;;;;;;;12.69;30.21;95642.34;5083394;28;20445;-65
2023/03/19 08:55:28;;;;;;;1.55;1.17;;;;;;;13.04;31.20;95634.78;5079996;28;21011;-65
2023/03/19 08:57:55;;;;;;;0.40;0.40;;;;;;;13.09;31.38;95634.78;5087847;28;20264;-63
2023/03/19 09:00:22;;;;;;;0.47;0.47;;;;;;;12.95;33.18;95631.00;5089108;28;20461;-62
2023/03/19 09:02:49;;;;;;;0.33;0.33;;;;;;;13.20;30.80;95628.56;5077457;28;20462;-63
2023/03/19 09:05:19;;;;;;;0.20;0.20;;;;;;;13.30;31.80;95627.03;5088894;28;21370;-63
2023/03/19 09:07:46;;;;;;;0.73;0.73;;;;;;;12.22;31.15;95621.09;5079288;28;21145;-64
2023/03/19 09:10:13;;;;;;;1.60;0.97;;;;;;;12.84;30.14;95621.44;5088239;28;20455;-63
2023/03/19 09:12:39;;;;;;;2.23;1.23;;;;;;;12.75;30.17;95620.31;5087853;28;20470;-64
2023/03/19 09:15:06;;;;;;;0.37;0.37;;;;;;;13.24;29.14;95620.94;5089166;28;20477;-63
2023/03/19 09:17:34;;;;;;;;;;;;;;;13.68;28.76;95608.28;5087062;28;20464;-64
2023/03/19 09:20:02;;;;;;;0.30;0.10;;;;;;;13.68;27.46;95609.09;5086839;28;20449;-64
2023/03/19 09:22:30;;;;;;;0.23;0.20;;;;;;;13.52;27.59;95604.00;5088176;28;20582;-63
2023/03/19 09:24:56;;;;;;;0.47;0.30;;;;;;;13.81;27.58;95613.09;5088183;28;20544;-65
2023/03/19 09:27:23;;;;;;;;;;;;;;;14.21;27.11;95611.34;5091179;28;20563;-66
2023/03/19 09:29:50;;;;;;;;;;;;;;;14.28;26.50;95608.50;5089477;28;20465;-65
2023/03/19 09:32:17;;;;;;;;;;;;;;;14.33;26.99;95605.88;5089122;28;19923;-64
2023/03/19 09:34:43;;;;;;;;;;;;;;;14.56;27.55;95604.59;5088930;28;19981;-61
2023/03/19 09:37:10;;;;;;;;;;;;;;;15.01;27.13;95594.84;5088133;28;19966;-65
2023/03/19 09:39:37;;;;;;;;;;;;;;;15.36;28.74;95593.19;5089435;28;19974;-64
2023/03/19 09:42:19;;;;;;;;;;;;;;;16.01;27.29;95585.06;5088057;28;19977;-62
2023/03/19 09:44:46;;;;;;;;;;;;;;;16.02;26.94;95592.69;5089329;28;19947;-63
2023/03/19 09:47:30;;;;;;;;;;;;;;;16.31;26.15;95584.09;5087833;28;20034;-67
2023/03/19 09:50:03;;;;;;;;;;;;;;;15.81;25.32;95590.44;5089510;28;19931;-62
2023/03/19 09:52:44;;;;;;;0.00;0.00;;;;;;;15.80;25.86;95583.56;5087623;28;20514;-61
2023/03/19 09:55:23;;;;;;;0.20;0.20;;;;;;;16.29;29.13;95581.72;5088478;28;20289;-61
2023/03/19 09:57:55;;;;;;;0.20;0.20;;;;;;;16.59;29.15;95572.81;5087635;28;20472;-64
2023/03/19 10:00:35;;;;;;;0.33;0.33;;;;;;;16.25;24.41;95572.75;5076161;28;20783;-67
2023/03/19 10:03:33;;;;;;;0.20;0.20;;;;;;;16.37;25.88;95567.91;5088143;28;20929;-65
2023/03/19 10:06:00;;;;;;;3.65;3.40;;;;;;;17.01;26.31;95557.09;5088476;28;20947;-70
2023/03/19 10:08:35;;;;;;;;;;;;;;;17.36;25.60;95563.91;5087263;28;20448;-67
2023/03/19 10:11:14;;;;;;;0.10;0.10;;;;;;;17.24;23.87;95562.44;5087000;28;20472;-66
2023/03/19 10:14:09;;;;;;;1.17;1.17;;;;;;;17.45;24.64;95552.44;5088383;28;20218;-65
2023/03/19 10:16:40;;;;;;;0.40;0.40;;;;;;;17.59;24.12;95536.69;5088466;28;20197;-63
2023/03/19 10:19:12;;;;;;;1.10;1.10;;;;;;;17.56;24.49;95553.13;5100615;28;20525;-68
2023/03/19 10:21:48;;;;;;;0.10;0.10;;;;;;;17.45;24.65;95541.81;5086949;28;20458;-66
2023/03/19 10:24:38;;;;;;;0.10;0.00;;;;;;;17.98;24.21;95537.22;5087606;28;20538;-68
2023/03/19 10:27:14;;;;;;;0.27;0.27;;;;;;;17.68;23.61;95527.03;5087738;28;20232;-68
2023/03/19 10:29:42;;;;;;;1.40;0.75;;;;;;;17.60;23.38;95528.44;5079169;28;20463;-65
2023/03/19 10:32:20;;;;;;;0.10;0.10;;;;;;;17.58;23.21;95524.47;5088114;28;20212;-71
2023/03/19 10:34:49;;;;;;;0.30;0.30;;;;;;;17.62;24.39;95512.25;5081520;28;20223;-67
2023/03/19 10:37:25;;;;;;;6.30;5.77;;;;;;;17.88;23.19;95516.94;5074563;28;20430;-66
2023/03/19 10:39:58;;;;;;;14.17;12.87;;;;;;;18.02;22.92;95511.72;5082986;28;20447;-68
2023/03/19 10:43:00;;;;;;;0.50;0.20;;;;;;;17.79;23.72;95504.63;5087706;28;20473;-64
2023/03/19 10:45:33;;;;;;;0.37;0.37;;;;;;;17.94;23.61;95499.88;5076298;28;20438;-64
2023/03/19 10:48:03;;;;;;;0.37;0.37;;;;;;;18.24;24.49;95496.03;5087910;28;20823;-67
2023/03/19 10:50:58;;;;;;;0.23;0.23;;;;;;;18.77;26.15;95485.91;5088190;28;20440;-69
2023/03/19 10:53:35;;;;;;;3.43;0.97;;;;;;;19.06;24.29;95476.59;5088126;28;20446;-68
2023/03/19 10:56:21;;;;;;;0.30;0.30;;;;;;;19.02;24.39;95465.00;5087149;28;21274;-63
2023/03/19 10:59:01;;;;;;;0.43;0.43;;;;;;;19.01;22.75;95462.63;5087952;28;21060;-65
2023/03/19 11:01:33;;;;;;;0.83;0.83;;;;;;;19.17;22.71;95451.44;5087119;28;20496;-64
2023/03/19 11:04:10;;;;;;;0.67;0.57;;;;;;;19.05;23.13;95456.41;5088089;28;21302;-66
2023/03/19 11:06:37;;;;;;;26.45;24.23;;;;;;;19.53;23.73;95450.72;5076026;28;20446;-64
2023/03/19 11:09:07;;;;;;;29.47;27.20;;;;;;;19.45;23.64;95446.91;5088066;28;20198;-67
2023/03/19 11:11:41;;;;;;;24.23;22.60;;;;;;;19.49;22.82;95439.13;5087418;28;20531;-65
2023/03/19 11:14:30;;;;;;;0.63;0.63;;;;;;;19.41;22.86;95437.97;5087227;28;20933;-65
2023/03/19 11:17:24;;;;;;;0.70;0.70;;;;;;;19.74;26.52;95433.28;5087585;28;20523;-65
2023/03/19 11:19:55;;;;;;;1.00;1.00;;;;;;;19.85;23.61;95413.34;5074956;28;20570;-66
2023/03/19 11:22:32;;;;;;;0.57;0.57;;;;;;;19.91;23.45;95412.13;5088307;28;20987;-68
2023/03/19 11:25:02;;;;;;;0.67;0.67;;;;;;;20.59;24.44;95422.50;5094615;28;20606;-65
2023/03/19 11:27:34;;;;;;;0.83;0.83;;;;;;;20.78;23.26;95410.53;5090869;28;20439;-64
2023/03/19 11:30:07;;;;;;;0.87;0.87;;;;;;;20.85;23.39;95407.44;5092728;28;20488;-63
2023/03/19 11:32:36;;;;;;;1.03;0.83;;;;;;;20.59;23.18;95391.34;5087387;28;20202;-66
2023/03/19 11:35:12;;;;;;;1.97;1.30;;;;;;;20.72;22.54;95395.78;5091559;28;20229;-64
2023/03/19 11:37:54;;;;;;;;;;;;;;;20.58;21.63;95400.44;5089552;28;20926;-65
2023/03/19 11:40:30;;;;;;;32.47;30.00;;;;;;;20.97;21.72;95396.97;5091156;28;20374;-66
2023/03/19 11:43:29;;;;;;;68.20;63.80;;;;;;;20.80;21.70;95387.03;5091641;28;20405;-62
2023/03/19 11:46:26;;;;;;;2.60;2.50;;;;;;;20.87;21.55;95387.41;5077498;28;20206;-66
2023/03/19 11:49:29;;;;;;;0.75;0.75;;;;;;;20.84;21.18;95377.34;5089745;28;20961;-63
2023/03/19 11:52:41;;;;;;;0.10;0.10;;;;;;;21.23;22.24;95367.78;5090214;28;20202;-64
2023/03/19 11:55:18;;;;;;;1.27;1.17;;;;;;;21.17;21.85;95370.59;5011611;28;22523;-65
2023/03/19 11:58:01;;;;;;;0.40;0.40;;;;;;;21.77;22.14;95368.00;5007117;28;20522;-66
2023/03/19 12:00:34;;;;;;;0.27;0.27;;;;;;;21.84;21.39;95362.22;5029105;28;20504;-66
2023/03/19 12:03:31;;;;;;;0.10;0.10;;;;;;;22.09;21.43;95348.06;5050456;28;20439;-66
2023/03/19 12:06:18;;;;;;;0.90;0.87;;;;;;;21.89;19.96;95348.72;5049456;28;20474;-65